createdAt,value
2023-04-16T00:00:10.498Z,18.05
2023-04-16T00:01:11.530Z,18.04
2023-04-16T00:02:11.725Z,18.04
2023-04-16T00:03:11.779Z,18.04
2023-04-16T00:04:11.735Z,18.04
2023-04-16T00:05:11.846Z,18.04
2023-04-16T00:06:11.701Z,18.04
2023-04-16T00:07:11.750Z,18.03
2023-04-16T00:08:11.764Z,18.04
2023-04-16T00:09:10.946Z,18.04
2023-04-16T00:10:11.843Z,18.03
2023-04-16T00:11:10.863Z,18.04
2023-04-16T00:12:11.897Z,18.03
2023-04-16T00:13:10.904Z,18.04
2023-04-16T00:14:12.041Z,18.03
2023-04-16T00:15:11.967Z,18.03
2023-04-16T00:16:11.997Z,18.03
2023-04-16T00:17:12.257Z,18.03
2023-04-16T00:18:12.069Z,18.03
2023-04-16T00:19:12.208Z,18.03
2023-04-16T00:20:11.099Z,18.03
2023-04-16T00:21:11.259Z,18.02
2023-04-16T00:22:11.170Z,18.02
2023-04-16T00:23:12.189Z,18.03
2023-04-16T00:24:11.250Z,18.03
2023-04-16T00:25:11.282Z,18.03
2023-04-16T00:26:12.290Z,18.03
2023-04-16T00:27:12.336Z,18.03
2023-04-16T00:28:12.378Z,18.02
2023-04-16T00:29:11.579Z,18.02
2023-04-16T00:30:12.482Z,18.02
2023-04-16T00:31:11.485Z,18.02
2023-04-16T00:32:11.504Z,18.02
2023-04-16T00:33:12.552Z,18.03
2023-04-16T00:34:12.624Z,18.02
2023-04-16T00:35:12.661Z,18.02
2023-04-16T00:36:12.652Z,18.01
2023-04-16T00:37:12.697Z,18.01
2023-04-16T00:38:11.684Z,18.01
2023-04-16T00:39:12.720Z,18.01
2023-04-16T00:40:12.794Z,18.01
2023-04-16T00:41:12.787Z,18.01
2023-04-16T00:42:11.821Z,18.02
2023-04-16T00:43:11.861Z,18.02
2023-04-16T00:44:12.906Z,18.01
2023-04-16T00:45:11.954Z,18.01
2023-04-16T00:46:13.037Z,18.01
2023-04-16T00:47:13.005Z,18.01
2023-04-16T00:48:13.047Z,18.01
2023-04-16T00:49:13.074Z,18.01
2023-04-16T00:50:13.089Z,18.00
2023-04-16T00:51:13.121Z,18.00
2023-04-16T00:52:13.160Z,18.00
2023-04-16T00:53:12.209Z,18.00
2023-04-16T00:54:13.223Z,18.00
2023-04-16T00:55:12.259Z,18.00
2023-04-16T00:56:13.304Z,18.00
2023-04-16T00:57:12.319Z,18.00
2023-04-16T00:58:12.373Z,18.00
2023-04-16T00:59:12.394Z,18.00
2023-04-16T01:00:12.422Z,18.00
2023-04-16T01:01:12.526Z,18.00
2023-04-16T01:02:13.693Z,18.00
2023-04-16T01:03:13.708Z,18.00
2023-04-16T01:04:13.686Z,18.00
2023-04-16T01:05:13.602Z,17.99
2023-04-16T01:06:13.641Z,17.99
2023-04-16T01:07:12.728Z,17.99
2023-04-16T01:08:12.699Z,17.99
2023-04-16T01:09:13.744Z,17.99
2023-04-16T01:10:13.761Z,17.99
2023-04-16T01:11:13.781Z,18.00
2023-04-16T01:12:13.829Z,17.99
2023-04-16T01:13:12.855Z,17.99
2023-04-16T01:14:13.892Z,17.99
2023-04-16T01:15:13.951Z,17.99
2023-04-16T01:16:14.012Z,17.99
2023-04-16T01:17:13.013Z,17.99
2023-04-16T01:18:14.044Z,17.99
2023-04-16T01:19:13.071Z,17.98
2023-04-16T01:20:14.299Z,17.99
2023-04-16T01:21:14.197Z,17.99
2023-04-16T01:22:13.190Z,17.98
2023-04-16T01:23:14.241Z,17.99
2023-04-16T01:24:13.264Z,17.98
2023-04-16T01:25:13.331Z,17.98
2023-04-16T01:26:14.321Z,17.98
2023-04-16T01:27:14.359Z,17.98
2023-04-16T01:28:14.417Z,17.98
2023-04-16T01:29:14.456Z,17.99
2023-04-16T01:30:14.466Z,17.98
2023-04-16T01:31:14.559Z,17.98
2023-04-16T01:32:14.553Z,17.98
2023-04-16T01:33:14.603Z,17.98
2023-04-16T01:34:14.606Z,17.98
2023-04-16T01:35:13.647Z,17.97
2023-04-16T01:36:14.732Z,17.97
2023-04-16T01:37:13.726Z,17.97
2023-04-16T01:38:13.764Z,17.98
2023-04-16T01:39:14.794Z,17.97
2023-04-16T01:40:14.852Z,17.96
2023-04-16T01:41:14.862Z,17.97
2023-04-16T01:42:14.943Z,17.97
2023-04-16T01:43:14.965Z,17.97
2023-04-16T01:44:13.967Z,17.97
2023-04-16T01:45:15.003Z,17.97
2023-04-16T01:46:15.091Z,17.97
2023-04-16T01:47:14.115Z,17.98
2023-04-16T01:48:15.150Z,17.97
2023-04-16T01:49:15.171Z,17.96
2023-04-16T01:50:14.210Z,17.97
2023-04-16T01:51:14.261Z,17.97
2023-04-16T01:52:14.285Z,17.96
2023-04-16T01:53:15.323Z,17.96
2023-04-16T01:54:14.339Z,17.96
2023-04-16T01:55:14.362Z,17.96
2023-04-16T01:56:15.435Z,17.95
2023-04-16T01:57:15.491Z,17.96
2023-04-16T01:58:14.464Z,17.95
2023-04-16T01:59:15.501Z,17.96
2023-04-16T02:00:14.548Z,17.95
2023-04-16T02:01:15.636Z,17.95
2023-04-16T02:02:15.675Z,17.96
2023-04-16T02:03:15.824Z,17.95
2023-04-16T02:04:15.753Z,17.94
2023-04-16T02:05:15.739Z,17.95
2023-04-16T02:06:15.788Z,17.95
2023-04-16T02:07:15.818Z,17.94
2023-04-16T02:08:15.850Z,17.94
2023-04-16T02:09:15.901Z,17.94
2023-04-16T02:10:15.938Z,17.95
2023-04-16T02:11:15.006Z,17.94
2023-04-16T02:12:16.035Z,17.95
2023-04-16T02:13:15.060Z,17.94
2023-04-16T02:14:16.087Z,17.94
2023-04-16T02:15:15.127Z,17.94
2023-04-16T02:16:15.243Z,17.94
2023-04-16T02:17:15.189Z,17.94
2023-04-16T02:18:16.234Z,17.94
2023-04-16T02:19:15.281Z,17.94
2023-04-16T02:20:15.322Z,17.94
2023-04-16T02:21:15.412Z,17.94
2023-04-16T02:22:16.414Z,17.94
2023-04-16T02:23:16.454Z,17.93
2023-04-16T02:24:15.503Z,17.94
2023-04-16T02:25:15.533Z,17.93
2023-04-16T02:26:16.580Z,17.94
2023-04-16T02:27:16.621Z,17.94
2023-04-16T02:28:15.743Z,17.94
2023-04-16T02:29:15.734Z,17.93
2023-04-16T02:30:15.764Z,17.93
2023-04-16T02:31:16.827Z,17.93
2023-04-16T02:32:16.860Z,17.94
2023-04-16T02:33:16.898Z,17.94
2023-04-16T02:34:16.929Z,17.93
2023-04-16T02:35:16.962Z,17.93
2023-04-16T02:36:16.000Z,17.93
2023-04-16T02:37:17.052Z,17.94
2023-04-16T02:38:17.083Z,17.93
2023-04-16T02:39:16.160Z,17.92
2023-04-16T02:40:17.179Z,17.93
2023-04-16T02:41:16.184Z,17.94
2023-04-16T02:42:17.381Z,17.93
2023-04-16T02:43:16.292Z,17.93
2023-04-16T02:44:17.342Z,17.92
2023-04-16T02:45:17.360Z,17.93
2023-04-16T02:46:17.497Z,17.93
2023-04-16T02:47:17.482Z,17.93
2023-04-16T02:48:17.470Z,17.93
2023-04-16T02:49:17.515Z,17.92
2023-04-16T02:50:16.539Z,17.92
2023-04-16T02:51:17.616Z,17.92
2023-04-16T02:52:16.648Z,17.93
2023-04-16T02:53:17.690Z,17.92
2023-04-16T02:54:16.725Z,17.92
2023-04-16T02:55:16.785Z,17.93
2023-04-16T02:56:17.820Z,17.93
2023-04-16T02:57:17.852Z,17.91
2023-04-16T02:58:16.895Z,17.92
2023-04-16T02:59:17.949Z,17.92
2023-04-16T03:00:18.021Z,17.92
2023-04-16T03:01:18.136Z,17.92
2023-04-16T03:02:17.101Z,17.92
2023-04-16T03:03:18.154Z,17.92
2023-04-16T03:04:18.202Z,17.91
2023-04-16T03:05:18.203Z,17.92
2023-04-16T03:06:18.241Z,17.91
2023-04-16T03:07:18.286Z,17.91
2023-04-16T03:08:17.345Z,17.91
2023-04-16T03:09:17.391Z,17.91
2023-04-16T03:10:17.387Z,17.92
2023-04-16T03:11:18.436Z,17.92
2023-04-16T03:12:18.459Z,17.91
2023-04-16T03:13:18.477Z,17.91
2023-04-16T03:14:17.507Z,17.90
2023-04-16T03:15:17.543Z,17.91
2023-04-16T03:16:18.689Z,17.91
2023-04-16T03:17:18.642Z,17.91
2023-04-16T03:18:17.618Z,17.91
2023-04-16T03:19:17.642Z,17.91
2023-04-16T03:20:18.692Z,17.91
2023-04-16T03:21:17.699Z,17.91
2023-04-16T03:22:18.744Z,17.90
2023-04-16T03:23:17.782Z,17.90
2023-04-16T03:24:18.792Z,17.91
2023-04-16T03:25:17.838Z,17.90
2023-04-16T03:26:18.864Z,17.91
2023-04-16T03:27:17.901Z,17.91
2023-04-16T03:28:18.923Z,17.91
2023-04-16T03:29:18.943Z,17.90
2023-04-16T03:30:19.025Z,17.91
2023-04-16T03:31:18.059Z,17.91
2023-04-16T03:32:19.066Z,17.90
2023-04-16T03:33:18.056Z,17.90
2023-04-16T03:34:18.096Z,17.90
2023-04-16T03:35:19.159Z,17.90
2023-04-16T03:36:19.144Z,17.90
2023-04-16T03:37:18.213Z,17.90
2023-04-16T03:38:19.191Z,17.91
2023-04-16T03:39:19.216Z,17.90
2023-04-16T03:40:19.246Z,17.90
2023-04-16T03:41:18.297Z,17.90
2023-04-16T03:42:18.326Z,17.90
2023-04-16T03:43:19.340Z,17.91
2023-04-16T03:44:19.373Z,17.90
2023-04-16T03:45:19.393Z,17.90
2023-04-16T03:46:19.502Z,17.89
2023-04-16T03:47:19.512Z,17.90
2023-04-16T03:48:18.518Z,17.90
2023-04-16T03:49:18.523Z,17.90
2023-04-16T03:50:19.547Z,17.90
2023-04-16T03:51:19.567Z,17.89
2023-04-16T03:52:19.631Z,17.89
2023-04-16T03:53:18.624Z,17.90
2023-04-16T03:54:19.628Z,17.90
2023-04-16T03:55:19.682Z,17.89
2023-04-16T03:56:19.713Z,17.89
2023-04-16T03:57:19.770Z,17.90
2023-04-16T03:58:19.777Z,17.89
2023-04-16T03:59:18.793Z,17.89
2023-04-16T04:00:19.829Z,17.90
2023-04-16T04:01:19.866Z,17.89
2023-04-16T04:02:18.994Z,17.89
2023-04-16T04:03:19.283Z,17.89
2023-04-16T04:04:20.138Z,17.89
2023-04-16T04:05:19.954Z,17.90
2023-04-16T04:06:19.995Z,17.89
2023-04-16T04:07:20.032Z,17.89
2023-04-16T04:08:20.032Z,17.90
2023-04-16T04:09:20.073Z,17.89
2023-04-16T04:10:20.097Z,17.90
2023-04-16T04:11:19.126Z,17.90
2023-04-16T04:12:19.152Z,17.89
2023-04-16T04:13:20.187Z,17.89
2023-04-16T04:14:20.202Z,17.89
2023-04-16T04:15:20.230Z,17.88
2023-04-16T04:16:20.294Z,17.89
2023-04-16T04:17:20.307Z,17.89
2023-04-16T04:18:20.322Z,17.88
2023-04-16T04:19:19.348Z,17.88
2023-04-16T04:20:20.401Z,17.88
2023-04-16T04:21:20.397Z,17.88
2023-04-16T04:22:20.429Z,17.88
2023-04-16T04:23:19.459Z,17.88
2023-04-16T04:24:19.496Z,17.88
2023-04-16T04:25:19.520Z,17.88
2023-04-16T04:26:20.561Z,17.87
2023-04-16T04:27:19.588Z,17.89
2023-04-16T04:28:20.609Z,17.88
2023-04-16T04:29:19.642Z,17.88
2023-04-16T04:30:20.674Z,17.88
2023-04-16T04:31:20.716Z,17.87
2023-04-16T04:32:19.789Z,17.88
2023-04-16T04:33:19.803Z,17.88
2023-04-16T04:34:19.790Z,17.88
2023-04-16T04:35:20.800Z,17.87
2023-04-16T04:36:20.837Z,17.88
2023-04-16T04:37:20.851Z,17.87
2023-04-16T04:38:19.959Z,17.88
2023-04-16T04:39:20.913Z,17.87
2023-04-16T04:40:19.915Z,17.87
2023-04-16T04:41:19.937Z,17.88
2023-04-16T04:42:19.983Z,17.87
2023-04-16T04:43:21.024Z,17.87
2023-04-16T04:44:20.044Z,17.87
2023-04-16T04:45:21.110Z,17.87
2023-04-16T04:46:21.184Z,17.88
2023-04-16T04:47:21.139Z,17.87
2023-04-16T04:48:20.154Z,17.88
2023-04-16T04:49:21.164Z,17.87
2023-04-16T04:50:20.207Z,17.87
2023-04-16T04:51:21.226Z,17.87
2023-04-16T04:52:21.272Z,17.87
2023-04-16T04:53:21.280Z,17.87
2023-04-16T04:54:21.348Z,17.87
2023-04-16T04:55:21.350Z,17.87
2023-04-16T04:56:20.383Z,17.87
2023-04-16T04:57:21.428Z,17.87
2023-04-16T04:58:21.458Z,17.87
2023-04-16T04:59:21.493Z,17.87
2023-04-16T05:00:21.496Z,17.86
2023-04-16T05:01:20.531Z,17.87
2023-04-16T05:02:21.685Z,17.87
2023-04-16T05:03:21.721Z,17.87
2023-04-16T05:04:21.620Z,17.87
2023-04-16T05:05:21.684Z,17.87
2023-04-16T05:06:21.687Z,17.86
2023-04-16T05:07:21.713Z,17.87
2023-04-16T05:08:20.781Z,17.87
2023-04-16T05:09:20.759Z,17.87
2023-04-16T05:10:21.803Z,17.87
2023-04-16T05:11:21.830Z,17.87
2023-04-16T05:12:21.842Z,17.86
2023-04-16T05:13:20.898Z,17.86
2023-04-16T05:14:21.908Z,17.86
2023-04-16T05:15:21.917Z,17.86
2023-04-16T05:16:21.055Z,17.86
2023-04-16T05:17:22.012Z,17.86
2023-04-16T05:18:22.028Z,17.86
2023-04-16T05:19:21.023Z,17.85
2023-04-16T05:20:22.035Z,17.86
2023-04-16T05:21:21.052Z,17.87
2023-04-16T05:22:22.076Z,17.86
2023-04-16T05:23:22.303Z,17.86
2023-04-16T05:24:21.142Z,17.86
2023-04-16T05:25:22.143Z,17.87
2023-04-16T05:26:22.170Z,17.87
2023-04-16T05:27:22.236Z,17.86
2023-04-16T05:28:22.252Z,17.86
2023-04-16T05:29:22.258Z,17.86
2023-04-16T05:30:22.311Z,17.86
2023-04-16T05:31:21.341Z,17.86
2023-04-16T05:32:21.390Z,17.86
2023-04-16T05:33:22.380Z,17.85
2023-04-16T05:34:22.396Z,17.85
2023-04-16T05:35:21.435Z,17.85
2023-04-16T05:36:21.446Z,17.85
2023-04-16T05:37:21.474Z,17.85
2023-04-16T05:38:22.551Z,17.86
2023-04-16T05:39:22.552Z,17.86
2023-04-16T05:40:22.662Z,17.86
2023-04-16T05:41:22.642Z,17.85
2023-04-16T05:42:22.646Z,17.85
2023-04-16T05:43:22.691Z,17.85
2023-04-16T05:44:22.706Z,17.85
2023-04-16T05:45:21.745Z,17.85
2023-04-16T05:46:22.817Z,17.85
2023-04-16T05:47:22.818Z,17.85
2023-04-16T05:48:22.852Z,17.85
2023-04-16T05:49:22.851Z,17.85
2023-04-16T05:50:22.908Z,17.85
2023-04-16T05:51:22.923Z,17.85
2023-04-16T05:52:22.950Z,17.85
2023-04-16T05:53:22.001Z,17.85
2023-04-16T05:54:22.011Z,17.85
2023-04-16T05:55:23.050Z,17.85
2023-04-16T05:56:23.096Z,17.85
2023-04-16T05:57:23.110Z,17.85
2023-04-16T05:58:22.120Z,17.85
2023-04-16T05:59:23.173Z,17.85
2023-04-16T06:00:23.177Z,17.85
2023-04-16T06:01:23.215Z,17.85
2023-04-16T06:02:23.384Z,17.86
2023-04-16T06:03:23.342Z,17.85
2023-04-16T06:04:23.490Z,17.85
2023-04-16T06:05:23.371Z,17.84
2023-04-16T06:06:23.366Z,17.85
2023-04-16T06:07:23.400Z,17.86
2023-04-16T06:08:23.435Z,17.85
2023-04-16T06:09:23.472Z,17.85
2023-04-16T06:10:23.497Z,17.85
2023-04-16T06:11:22.533Z,17.86
2023-04-16T06:12:23.589Z,17.86
2023-04-16T06:13:23.585Z,17.85
2023-04-16T06:14:22.625Z,17.85
2023-04-16T06:15:22.646Z,17.85
2023-04-16T06:16:23.690Z,17.85
2023-04-16T06:17:22.725Z,17.86
2023-04-16T06:18:23.757Z,17.86
2023-04-16T06:19:23.787Z,17.86
2023-04-16T06:20:22.819Z,17.85
2023-04-16T06:21:23.858Z,17.85
2023-04-16T06:22:23.879Z,17.85
2023-04-16T06:23:23.913Z,17.86
2023-04-16T06:24:23.951Z,17.85
2023-04-16T06:25:22.968Z,17.86
2023-04-16T06:26:23.998Z,17.86
2023-04-16T06:27:24.039Z,17.86
2023-04-16T06:28:24.092Z,17.85
2023-04-16T06:29:33.535Z,17.86
2023-04-16T06:30:24.116Z,17.85
2023-04-16T06:31:24.165Z,17.86
2023-04-16T06:32:23.101Z,17.85
2023-04-16T06:33:23.073Z,17.86
2023-04-16T06:34:24.077Z,17.85
2023-04-16T06:35:24.058Z,17.85
2023-04-16T06:36:23.042Z,17.86
2023-04-16T06:37:24.052Z,17.86
2023-04-16T06:38:23.084Z,17.85
2023-04-16T06:39:24.032Z,17.86
2023-04-16T06:40:24.036Z,17.85
2023-04-16T06:41:24.022Z,17.86
2023-04-16T06:42:24.000Z,17.86
2023-04-16T06:43:24.040Z,17.86
2023-04-16T06:44:24.039Z,17.86
2023-04-16T06:45:24.019Z,17.86
2023-04-16T06:46:24.064Z,17.86
2023-04-16T06:47:23.010Z,17.86
2023-04-16T06:48:22.989Z,17.86
2023-04-16T06:49:23.977Z,17.86
2023-04-16T06:50:23.963Z,17.86
2023-04-16T06:51:23.956Z,17.86
2023-04-16T06:52:23.958Z,17.87
2023-04-16T06:53:23.957Z,17.86
2023-04-16T06:54:22.943Z,17.87
2023-04-16T06:55:22.917Z,17.86
2023-04-16T06:56:22.926Z,17.86
2023-04-16T06:57:22.918Z,17.87
2023-04-16T06:58:23.898Z,17.86
2023-04-16T06:59:23.903Z,17.86
2023-04-16T07:00:23.919Z,17.86
2023-04-16T07:01:23.008Z,17.86
2023-04-16T07:02:24.019Z,17.87
2023-04-16T07:03:24.117Z,17.86
2023-04-16T07:04:24.002Z,17.87
2023-04-16T07:05:23.868Z,17.87
2023-04-16T07:06:23.852Z,17.87
2023-04-16T07:07:22.845Z,17.87
2023-04-16T07:08:23.848Z,17.87
2023-04-16T07:09:22.877Z,17.87
2023-04-16T07:10:23.923Z,17.87
2023-04-16T07:11:23.963Z,17.87
2023-04-16T07:12:23.990Z,17.87
2023-04-16T07:13:24.046Z,17.87
2023-04-16T07:14:23.071Z,17.86
2023-04-16T07:15:23.137Z,17.87
2023-04-16T07:16:24.176Z,17.87
2023-04-16T07:17:23.200Z,17.87
2023-04-16T07:18:24.215Z,17.87
2023-04-16T07:19:23.245Z,17.87
2023-04-16T07:20:24.350Z,17.87
2023-04-16T07:21:23.305Z,17.87
2023-04-16T07:22:23.354Z,17.87
2023-04-16T07:23:24.367Z,17.87
2023-04-16T07:24:24.404Z,17.87
2023-04-16T07:25:23.475Z,17.87
2023-04-16T07:26:23.479Z,17.88
2023-04-16T07:27:23.539Z,17.87
2023-04-16T07:28:23.562Z,17.88
2023-04-16T07:29:24.597Z,17.88
2023-04-16T07:30:24.750Z,17.87
2023-04-16T07:31:23.706Z,17.88
2023-04-16T07:32:24.832Z,17.88
2023-04-16T07:33:24.751Z,17.88
2023-04-16T07:34:23.763Z,17.88
2023-04-16T07:35:23.797Z,17.88
2023-04-16T07:36:24.828Z,17.88
2023-04-16T07:37:24.929Z,17.88
2023-04-16T07:38:24.878Z,17.88
2023-04-16T07:39:24.935Z,17.88
2023-04-16T07:40:24.002Z,17.89
2023-04-16T07:41:25.015Z,17.89
2023-04-16T07:42:25.027Z,17.89
2023-04-16T07:43:25.075Z,17.89
2023-04-16T07:44:25.092Z,17.89
2023-04-16T07:45:25.137Z,17.88
2023-04-16T07:46:28.345Z,17.88
2023-04-16T07:47:25.169Z,17.88
2023-04-16T07:48:25.207Z,17.89
2023-04-16T07:49:25.187Z,17.89
2023-04-16T07:50:24.165Z,17.89
2023-04-16T07:51:25.141Z,17.89
2023-04-16T07:52:25.137Z,17.90
2023-04-16T07:53:25.110Z,17.89
2023-04-16T07:54:24.120Z,17.90
2023-04-16T07:55:24.125Z,17.90
2023-04-16T07:56:24.107Z,17.89
2023-04-16T07:57:24.091Z,17.90
2023-04-16T07:58:25.091Z,17.90
2023-04-16T07:59:25.319Z,17.90
2023-04-16T08:00:25.080Z,17.90
2023-04-16T08:01:24.077Z,17.91
2023-04-16T08:02:25.159Z,17.91
2023-04-16T08:03:25.316Z,17.90
2023-04-16T08:04:25.949Z,17.90
2023-04-16T08:05:25.153Z,17.90
2023-04-16T08:06:25.036Z,17.90
2023-04-16T08:07:25.053Z,17.90
2023-04-16T08:08:24.076Z,17.91
2023-04-16T08:09:25.127Z,17.90
2023-04-16T08:10:24.158Z,17.91
2023-04-16T08:11:25.172Z,17.91
2023-04-16T08:12:25.216Z,17.91
2023-04-16T08:13:25.245Z,17.91
2023-04-16T08:14:25.277Z,17.92
2023-04-16T08:15:25.324Z,17.91
2023-04-16T08:16:25.724Z,17.92
2023-04-16T08:17:24.454Z,17.92
2023-04-16T08:18:25.404Z,17.92
2023-04-16T08:19:25.434Z,17.93
2023-04-16T08:20:25.515Z,17.92
2023-04-16T08:21:25.512Z,17.92
2023-04-16T08:22:25.564Z,17.92
2023-04-16T08:23:25.597Z,17.92
2023-04-16T08:24:25.623Z,17.92
2023-04-16T08:25:24.661Z,17.92
2023-04-16T08:26:25.695Z,17.93
2023-04-16T08:27:25.767Z,17.93
2023-04-16T08:28:25.793Z,17.93
2023-04-16T08:29:24.807Z,17.93
2023-04-16T08:30:24.845Z,17.93
2023-04-16T08:31:25.895Z,17.94
2023-04-16T08:32:26.002Z,17.93
2023-04-16T08:33:24.971Z,17.94
2023-04-16T08:34:24.983Z,17.94
2023-04-16T08:35:25.042Z,17.94
2023-04-16T08:36:26.115Z,17.94
2023-04-16T08:37:26.093Z,17.94
2023-04-16T08:38:25.134Z,17.95
2023-04-16T08:39:26.170Z,17.95
2023-04-16T08:40:26.228Z,17.94
2023-04-16T08:41:25.226Z,17.95
2023-04-16T08:42:26.251Z,17.95
2023-04-16T08:43:26.290Z,17.95
2023-04-16T08:44:25.331Z,17.96
2023-04-16T08:45:26.369Z,17.97
2023-04-16T08:46:26.413Z,17.97
2023-04-16T08:47:25.436Z,17.96
2023-04-16T08:48:26.438Z,17.98
2023-04-16T08:49:25.469Z,17.97
2023-04-16T08:50:26.520Z,17.98
2023-04-16T08:51:25.528Z,17.98
2023-04-16T08:52:25.580Z,17.98
2023-04-16T08:53:26.585Z,17.99
2023-04-16T08:54:26.612Z,17.99
2023-04-16T08:55:26.646Z,18.00
2023-04-16T08:56:25.683Z,17.99
2023-04-16T08:57:25.724Z,17.99
2023-04-16T08:58:26.732Z,18.00
2023-04-16T08:59:25.769Z,18.00
2023-04-16T09:00:26.802Z,18.00
2023-04-16T09:01:26.918Z,18.00
2023-04-16T09:02:25.995Z,18.01
2023-04-16T09:03:26.946Z,18.01
2023-04-16T09:04:27.000Z,18.00
2023-04-16T09:05:25.978Z,18.02
2023-04-16T09:06:26.941Z,18.01
2023-04-16T09:07:26.982Z,18.01
2023-04-16T09:08:26.016Z,18.02
2023-04-16T09:09:26.005Z,18.02
2023-04-16T09:10:27.048Z,18.02
2023-04-16T09:11:27.058Z,18.03
2023-04-16T09:12:26.073Z,18.03
2023-04-16T09:13:27.182Z,18.03
2023-04-16T09:14:26.132Z,18.03
2023-04-16T09:15:27.170Z,18.04
2023-04-16T09:16:26.242Z,18.04
2023-04-16T09:17:27.246Z,18.04
2023-04-16T09:18:26.233Z,18.04
2023-04-16T09:19:27.308Z,18.04
2023-04-16T09:20:27.289Z,18.05
2023-04-16T09:21:26.319Z,18.05
2023-04-16T09:22:26.332Z,18.05
2023-04-16T09:23:27.379Z,18.05
2023-04-16T09:24:27.448Z,18.06
2023-04-16T09:25:27.497Z,18.06
2023-04-16T09:26:26.460Z,18.06
2023-04-16T09:27:27.485Z,18.06
2023-04-16T09:28:26.528Z,18.06
2023-04-16T09:29:26.542Z,18.07
2023-04-16T09:30:26.571Z,18.07
2023-04-16T09:31:26.694Z,18.08
2023-04-16T09:32:26.672Z,18.09
2023-04-16T09:33:27.636Z,18.09
2023-04-16T09:34:26.675Z,18.09
2023-04-16T09:35:27.690Z,18.09
2023-04-16T09:36:27.732Z,18.10
2023-04-16T09:37:27.744Z,18.10
2023-04-16T09:38:26.767Z,18.11
2023-04-16T09:39:27.807Z,18.12
2023-04-16T09:40:27.830Z,18.11
2023-04-16T09:41:27.825Z,18.12
2023-04-16T09:42:27.834Z,18.12
2023-04-16T09:43:27.874Z,18.12
2023-04-16T09:44:27.898Z,18.12
2023-04-16T09:45:26.904Z,18.12
2023-04-16T09:46:26.951Z,18.13
2023-04-16T09:47:27.947Z,18.13
2023-04-16T09:48:26.961Z,18.13
2023-04-16T09:49:27.981Z,18.14
2023-04-16T09:50:28.015Z,18.14
2023-04-16T09:51:28.020Z,18.14
2023-04-16T09:52:28.032Z,18.15
2023-04-16T09:53:27.058Z,18.14
2023-04-16T09:54:27.088Z,18.15
2023-04-16T09:55:27.117Z,18.15
2023-04-16T09:56:28.137Z,18.15
2023-04-16T09:57:27.144Z,18.16
2023-04-16T09:58:27.162Z,18.15
2023-04-16T09:59:28.172Z,18.16
2023-04-16T10:00:28.236Z,18.16
2023-04-16T10:01:27.295Z,18.16
2023-04-16T10:02:28.281Z,18.17
2023-04-16T10:03:28.341Z,18.17
2023-04-16T10:04:27.293Z,18.18
2023-04-16T10:05:27.372Z,18.18
2023-04-16T10:06:28.345Z,18.18
2023-04-16T10:07:28.356Z,18.18
2023-04-16T10:08:28.352Z,18.18
2023-04-16T10:09:28.370Z,18.18
2023-04-16T10:10:28.398Z,18.18
2023-04-16T10:11:28.404Z,18.19
2023-04-16T10:12:28.429Z,18.19
2023-04-16T10:13:28.430Z,18.19
2023-04-16T10:14:27.431Z,18.20
2023-04-16T10:15:27.446Z,18.20
2023-04-16T10:16:27.545Z,18.20
2023-04-16T10:17:27.499Z,18.20
2023-04-16T10:18:28.453Z,18.20
2023-04-16T10:19:27.486Z,18.20
2023-04-16T10:20:28.474Z,18.20
2023-04-16T10:21:27.504Z,18.20
2023-04-16T10:22:28.512Z,18.21
2023-04-16T10:23:28.525Z,18.21
2023-04-16T10:24:28.541Z,18.21
2023-04-16T10:25:27.558Z,18.22
2023-04-16T10:26:28.567Z,18.22
2023-04-16T10:27:27.603Z,18.22
2023-04-16T10:28:28.630Z,18.22
2023-04-16T10:29:27.604Z,18.22
2023-04-16T10:30:27.649Z,18.22
2023-04-16T10:31:28.685Z,18.22
2023-04-16T10:32:28.806Z,18.22
2023-04-16T10:33:28.634Z,18.22
2023-04-16T10:34:27.658Z,18.23
2023-04-16T10:35:27.668Z,18.22
2023-04-16T10:36:28.694Z,18.23
2023-04-16T10:37:28.742Z,18.22
2023-04-16T10:38:28.776Z,18.23
2023-04-16T10:39:28.764Z,18.23
2023-04-16T10:40:28.786Z,18.23
2023-04-16T10:41:27.797Z,18.23
2023-04-16T10:42:28.813Z,18.23
2023-04-16T10:43:28.842Z,18.24
2023-04-16T10:44:28.882Z,18.24
2023-04-16T10:45:28.877Z,18.24
2023-04-16T10:46:28.946Z,18.24
2023-04-16T10:47:27.928Z,18.24
2023-04-16T10:48:33.135Z,18.24
2023-04-16T10:49:29.067Z,18.24
2023-04-16T10:50:28.916Z,18.24
2023-04-16T10:51:28.937Z,18.25
2023-04-16T10:52:28.889Z,18.24
2023-04-16T10:53:28.890Z,18.25
2023-04-16T10:54:28.892Z,18.25
2023-04-16T10:55:28.880Z,18.25
2023-04-16T10:56:27.873Z,18.26
2023-04-16T10:57:28.892Z,18.25
2023-04-16T10:58:27.862Z,18.26
2023-04-16T10:59:28.857Z,18.26
2023-04-16T11:00:28.864Z,18.26
2023-04-16T11:01:28.874Z,18.27
2023-04-16T11:02:29.165Z,18.26
2023-04-16T11:03:29.007Z,18.26
2023-04-16T11:04:27.997Z,18.27
2023-04-16T11:05:27.795Z,18.27
2023-04-16T11:06:27.810Z,18.27
2023-04-16T11:07:28.792Z,18.27
2023-04-16T11:08:27.790Z,18.27
2023-04-16T11:09:28.796Z,18.27
2023-04-16T11:10:28.769Z,18.27
2023-04-16T11:11:28.775Z,18.27
2023-04-16T11:12:28.755Z,18.27
2023-04-16T11:13:28.774Z,18.28
2023-04-16T11:14:28.751Z,18.28
2023-04-16T11:15:28.775Z,18.28
2023-04-16T11:16:28.844Z,18.29
2023-04-16T11:17:28.792Z,18.29
2023-04-16T11:18:28.807Z,18.29
2023-04-16T11:19:28.824Z,18.29
2023-04-16T11:20:28.821Z,18.30
2023-04-16T11:21:28.837Z,18.30
2023-04-16T11:22:27.851Z,18.30
2023-04-16T11:23:28.867Z,18.29
2023-04-16T11:24:28.862Z,18.29
2023-04-16T11:25:28.878Z,18.30
2023-04-16T11:26:28.900Z,18.30
2023-04-16T11:27:28.893Z,18.30
2023-04-16T11:28:27.912Z,18.31
2023-04-16T11:29:28.920Z,18.31
2023-04-16T11:30:28.922Z,18.31
2023-04-16T11:31:29.015Z,18.31
2023-04-16T11:32:28.997Z,18.32
2023-04-16T11:33:29.016Z,18.32
2023-04-16T11:34:28.956Z,18.33
2023-04-16T11:35:27.991Z,18.32
2023-04-16T11:36:28.996Z,18.33
2023-04-16T11:37:28.004Z,18.33
2023-04-16T11:38:29.042Z,18.33
2023-04-16T11:39:28.018Z,18.34
2023-04-16T11:40:29.028Z,18.34
2023-04-16T11:41:28.031Z,18.34
2023-04-16T11:42:29.069Z,18.34
2023-04-16T11:43:29.104Z,18.34
2023-04-16T11:44:29.073Z,18.35
2023-04-16T11:45:29.085Z,18.36
2023-04-16T11:46:28.136Z,18.36
2023-04-16T11:47:29.310Z,18.36
2023-04-16T11:48:29.137Z,18.37
2023-04-16T11:49:28.101Z,18.36
2023-04-16T11:50:29.112Z,18.37
2023-04-16T11:51:28.108Z,18.37
2023-04-16T11:52:28.275Z,18.37
2023-04-16T11:53:28.137Z,18.38
2023-04-16T11:54:28.131Z,18.38
2023-04-16T11:55:28.129Z,18.38
2023-04-16T11:56:29.152Z,18.38
2023-04-16T11:57:29.158Z,18.38
2023-04-16T11:58:28.163Z,18.38
2023-04-16T11:59:29.185Z,18.39
2023-04-16T12:00:28.181Z,18.39
2023-04-16T12:01:28.163Z,18.39
2023-04-16T12:02:29.257Z,18.39
2023-04-16T12:03:29.397Z,18.40
2023-04-16T12:04:29.304Z,18.41
2023-04-16T12:05:29.205Z,18.41
2023-04-16T12:06:28.180Z,18.40
2023-04-16T12:07:29.177Z,18.41
2023-04-16T12:08:29.171Z,18.42
2023-04-16T12:09:29.169Z,18.42
2023-04-16T12:10:29.172Z,18.43
2023-04-16T12:11:29.182Z,18.42
2023-04-16T12:12:28.246Z,18.43
2023-04-16T12:13:29.163Z,18.43
2023-04-16T12:14:29.177Z,18.43
2023-04-16T12:15:29.175Z,18.44
2023-04-16T12:16:28.243Z,18.44
2023-04-16T12:17:28.583Z,18.45
2023-04-16T12:18:29.191Z,18.45
2023-04-16T12:19:29.171Z,18.45
2023-04-16T12:20:29.197Z,18.46
2023-04-16T12:21:29.163Z,18.46
2023-04-16T12:22:28.175Z,18.47
2023-04-16T12:23:29.183Z,18.47
2023-04-16T12:24:29.167Z,18.47
2023-04-16T12:25:29.177Z,18.48
2023-04-16T12:26:28.175Z,18.48
2023-04-16T12:27:28.165Z,18.49
2023-04-16T12:28:28.357Z,18.49
2023-04-16T12:29:28.195Z,18.49
2023-04-16T12:30:29.165Z,18.51
2023-04-16T12:31:28.246Z,18.50
2023-04-16T12:32:29.168Z,18.51
2023-04-16T12:33:29.156Z,18.51
2023-04-16T12:34:48.878Z,18.51
2023-04-16T12:35:29.139Z,18.50
2023-04-16T12:36:28.143Z,18.50
2023-04-16T12:37:29.114Z,18.51
2023-04-16T12:38:29.130Z,18.51
2023-04-16T12:39:29.105Z,18.52
2023-04-16T12:40:29.092Z,18.52
2023-04-16T12:41:28.117Z,18.53
2023-04-16T12:42:29.081Z,18.53
2023-04-16T12:43:29.085Z,18.54
2023-04-16T12:44:29.080Z,18.54
2023-04-16T12:45:29.081Z,18.54
2023-04-16T12:46:29.115Z,18.54
2023-04-16T12:47:29.069Z,18.55
2023-04-16T12:48:29.043Z,18.55
2023-04-16T12:49:28.052Z,18.55
2023-04-16T12:50:29.043Z,18.57
2023-04-16T12:51:29.036Z,18.56
2023-04-16T12:52:29.052Z,18.56